sensor_id;sensor_type;location;lat;lon;timestamp;P1;durP1;ratioP1;P2;durP2;ratioP2
74510;SDS011;62991;50.040;18.400;2024-01-07T00:02:33;12.10;;;3.78;;
74510;SDS011;62991;50.040;18.400;2024-01-07T00:05:35;7.38;;;4.10;;
74510;SDS011;62991;50.040;18.400;2024-01-07T00:08:37;9.30;;;3.92;;
74510;SDS011;62991;50.040;18.400;2024-01-07T00:11:38;7.60;;;4.10;;
74510;SDS011;62991;50.040;18.400;2024-01-07T00:14:39;10.13;;;3.45;;
74510;SDS011;62991;50.040;18.400;2024-01-07T00:17:40;12.07;;;4.07;;
74510;SDS011;62991;50.040;18.400;2024-01-07T00:20:40;7.50;;;4.13;;
74510;SDS011;62991;50.040;18.400;2024-01-07T00:23:41;5.93;;;3.22;;
74510;SDS011;62991;50.040;18.400;2024-01-07T00:26:42;7.70;;;4.00;;
74510;SDS011;62991;50.040;18.400;2024-01-07T00:29:42;5.50;;;3.42;;
74510;SDS011;62991;50.040;18.400;2024-01-07T00:32:43;7.05;;;3.20;;
74510;SDS011;62991;50.040;18.400;2024-01-07T00:35:44;10.43;;;3.85;;
74510;SDS011;62991;50.040;18.400;2024-01-07T00:38:45;11.77;;;3.90;;
74510;SDS011;62991;50.040;18.400;2024-01-07T00:41:45;9.70;;;3.72;;
74510;SDS011;62991;50.040;18.400;2024-01-07T00:44:46;9.27;;;3.45;;
74510;SDS011;62991;50.040;18.400;2024-01-07T00:47:47;9.13;;;3.80;;
74510;SDS011;62991;50.040;18.400;2024-01-07T00:50:47;8.95;;;5.03;;
74510;SDS011;62991;50.040;18.400;2024-01-07T00:53:48;8.23;;;3.60;;
74510;SDS011;62991;50.040;18.400;2024-01-07T00:56:49;10.27;;;4.05;;
74510;SDS011;62991;50.040;18.400;2024-01-07T00:59:50;7.82;;;3.20;;
74510;SDS011;62991;50.040;18.400;2024-01-07T01:02:51;13.27;;;4.15;;
74510;SDS011;62991;50.040;18.400;2024-01-07T01:05:52;8.23;;;3.35;;
74510;SDS011;62991;50.040;18.400;2024-01-07T01:08:52;9.25;;;3.45;;
74510;SDS011;62991;50.040;18.400;2024-01-07T01:11:53;10.38;;;4.55;;
74510;SDS011;62991;50.040;18.400;2024-01-07T01:14:54;5.00;;;2.83;;
74510;SDS011;62991;50.040;18.400;2024-01-07T01:17:55;5.85;;;3.03;;
74510;SDS011;62991;50.040;18.400;2024-01-07T01:20:55;6.72;;;2.95;;
74510;SDS011;62991;50.040;18.400;2024-01-07T01:23:56;5.40;;;2.45;;
74510;SDS011;62991;50.040;18.400;2024-01-07T01:26:58;9.23;;;2.95;;
74510;SDS011;62991;50.040;18.400;2024-01-07T01:29:58;10.10;;;4.95;;
74510;SDS011;62991;50.040;18.400;2024-01-07T01:32:59;7.63;;;2.83;;
74510;SDS011;62991;50.040;18.400;2024-01-07T01:36:03;8.55;;;3.17;;
74510;SDS011;62991;50.040;18.400;2024-01-07T01:39:05;9.52;;;3.58;;
74510;SDS011;62991;50.040;18.400;2024-01-07T01:42:06;6.70;;;3.22;;
74510;SDS011;62991;50.040;18.400;2024-01-07T01:45:07;6.10;;;3.03;;
74510;SDS011;62991;50.040;18.400;2024-01-07T01:48:08;8.32;;;3.28;;
74510;SDS011;62991;50.040;18.400;2024-01-07T01:51:09;6.78;;;3.53;;
74510;SDS011;62991;50.040;18.400;2024-01-07T01:54:10;6.32;;;2.85;;
74510;SDS011;62991;50.040;18.400;2024-01-07T01:57:13;5.53;;;3.22;;
74510;SDS011;62991;50.040;18.400;2024-01-07T02:00:19;4.45;;;2.45;;
74510;SDS011;62991;50.040;18.400;2024-01-07T02:03:20;10.00;;;4.15;;
74510;SDS011;62991;50.040;18.400;2024-01-07T02:06:20;7.03;;;2.53;;
74510;SDS011;62991;50.040;18.400;2024-01-07T02:09:21;6.18;;;3.05;;
74510;SDS011;62991;50.040;18.400;2024-01-07T02:12:22;7.18;;;2.97;;
74510;SDS011;62991;50.040;18.400;2024-01-07T02:15:23;5.28;;;2.75;;
74510;SDS011;62991;50.040;18.400;2024-01-07T02:18:23;7.40;;;2.83;;
74510;SDS011;62991;50.040;18.400;2024-01-07T02:21:24;3.65;;;1.77;;
74510;SDS011;62991;50.040;18.400;2024-01-07T02:24:25;5.20;;;2.33;;
74510;SDS011;62991;50.040;18.400;2024-01-07T02:27:25;6.40;;;2.95;;
74510;SDS011;62991;50.040;18.400;2024-01-07T02:30:26;5.38;;;2.97;;
74510;SDS011;62991;50.040;18.400;2024-01-07T02:33:27;6.05;;;2.95;;
74510;SDS011;62991;50.040;18.400;2024-01-07T02:36:29;7.53;;;3.22;;
74510;SDS011;62991;50.040;18.400;2024-01-07T02:39:29;8.70;;;3.03;;
74510;SDS011;62991;50.040;18.400;2024-01-07T02:42:30;4.70;;;2.90;;
74510;SDS011;62991;50.040;18.400;2024-01-07T02:45:31;4.97;;;2.28;;
74510;SDS011;62991;50.040;18.400;2024-01-07T02:48:31;7.85;;;3.13;;
74510;SDS011;62991;50.040;18.400;2024-01-07T02:51:32;5.05;;;2.35;;
74510;SDS011;62991;50.040;18.400;2024-01-07T02:54:33;4.85;;;2.13;;
74510;SDS011;62991;50.040;18.400;2024-01-07T02:57:33;7.18;;;2.70;;
74510;SDS011;62991;50.040;18.400;2024-01-07T03:00:34;5.68;;;2.85;;
74510;SDS011;62991;50.040;18.400;2024-01-07T03:03:35;5.90;;;3.13;;
74510;SDS011;62991;50.040;18.400;2024-01-07T03:06:36;5.75;;;2.58;;
74510;SDS011;62991;50.040;18.400;2024-01-07T03:09:36;5.93;;;2.55;;
74510;SDS011;62991;50.040;18.400;2024-01-07T03:12:37;6.68;;;2.17;;
74510;SDS011;62991;50.040;18.400;2024-01-07T03:15:38;9.32;;;3.38;;
74510;SDS011;62991;50.040;18.400;2024-01-07T03:18:38;6.93;;;2.72;;
74510;SDS011;62991;50.040;18.400;2024-01-07T03:21:39;8.25;;;2.28;;
74510;SDS011;62991;50.040;18.400;2024-01-07T03:24:41;8.10;;;2.83;;
74510;SDS011;62991;50.040;18.400;2024-01-07T03:27:42;5.30;;;2.47;;
74510;SDS011;62991;50.040;18.400;2024-01-07T03:30:43;4.03;;;2.03;;
74510;SDS011;62991;50.040;18.400;2024-01-07T03:33:43;5.85;;;2.08;;
74510;SDS011;62991;50.040;18.400;2024-01-07T03:36:44;5.75;;;2.20;;
74510;SDS011;62991;50.040;18.400;2024-01-07T03:39:46;5.00;;;2.75;;
74510;SDS011;62991;50.040;18.400;2024-01-07T03:42:47;3.42;;;1.98;;
74510;SDS011;62991;50.040;18.400;2024-01-07T03:45:48;3.08;;;1.73;;
74510;SDS011;62991;50.040;18.400;2024-01-07T03:48:49;5.20;;;1.52;;
74510;SDS011;62991;50.040;18.400;2024-01-07T03:51:50;5.07;;;2.03;;
74510;SDS011;62991;50.040;18.400;2024-01-07T03:54:51;6.25;;;2.35;;
74510;SDS011;62991;50.040;18.400;2024-01-07T03:57:51;4.40;;;1.50;;
74510;SDS011;62991;50.040;18.400;2024-01-07T04:00:52;4.80;;;1.80;;
74510;SDS011;62991;50.040;18.400;2024-01-07T04:03:52;5.57;;;1.95;;
74510;SDS011;62991;50.040;18.400;2024-01-07T04:06:53;4.80;;;2.03;;
74510;SDS011;62991;50.040;18.400;2024-01-07T04:09:54;3.85;;;1.98;;
74510;SDS011;62991;50.040;18.400;2024-01-07T04:12:54;5.72;;;2.58;;
74510;SDS011;62991;50.040;18.400;2024-01-07T04:15:55;3.13;;;1.73;;
74510;SDS011;62991;50.040;18.400;2024-01-07T04:18:56;4.65;;;1.65;;
74510;SDS011;62991;50.040;18.400;2024-01-07T04:21:56;4.28;;;1.55;;
74510;SDS011;62991;50.040;18.400;2024-01-07T04:24:57;3.53;;;2.15;;
74510;SDS011;62991;50.040;18.400;2024-01-07T04:27:58;4.55;;;2.35;;
74510;SDS011;62991;50.040;18.400;2024-01-07T04:30:59;3.50;;;1.63;;
74510;SDS011;62991;50.040;18.400;2024-01-07T04:33:59;1.13;;;0.70;;
74510;SDS011;62991;50.040;18.400;2024-01-07T04:37:00;3.38;;;1.30;;
74510;SDS011;62991;50.040;18.400;2024-01-07T04:40:01;4.65;;;1.98;;
74510;SDS011;62991;50.040;18.400;2024-01-07T04:43:02;3.83;;;1.80;;
74510;SDS011;62991;50.040;18.400;2024-01-07T04:46:03;1.00;;;0.88;;
74510;SDS011;62991;50.040;18.400;2024-01-07T04:49:04;3.58;;;1.65;;
74510;SDS011;62991;50.040;18.400;2024-01-07T04:52:05;5.10;;;1.80;;
74510;SDS011;62991;50.040;18.400;2024-01-07T04:55:06;2.67;;;1.52;;
74510;SDS011;62991;50.040;18.400;2024-01-07T04:58:07;5.25;;;2.00;;
74510;SDS011;62991;50.040;18.400;2024-01-07T05:01:08;4.57;;;1.50;;
74510;SDS011;62991;50.040;18.400;2024-01-07T05:04:08;2.80;;;1.58;;
74510;SDS011;62991;50.040;18.400;2024-01-07T05:07:09;3.28;;;1.73;;
74510;SDS011;62991;50.040;18.400;2024-01-07T05:10:10;5.00;;;2.08;;
74510;SDS011;62991;50.040;18.400;2024-01-07T05:13:10;4.95;;;2.47;;
74510;SDS011;62991;50.040;18.400;2024-01-07T05:16:18;2.10;;;1.48;;
74510;SDS011;62991;50.040;18.400;2024-01-07T05:19:19;4.88;;;1.58;;
74510;SDS011;62991;50.040;18.400;2024-01-07T05:22:21;2.92;;;1.38;;
74510;SDS011;62991;50.040;18.400;2024-01-07T05:25:22;8.40;;;2.42;;
74510;SDS011;62991;50.040;18.400;2024-01-07T05:28:22;2.63;;;1.77;;
74510;SDS011;62991;50.040;18.400;2024-01-07T05:31:23;9.82;;;2.17;;
74510;SDS011;62991;50.040;18.400;2024-01-07T05:34:24;2.90;;;1.80;;
74510;SDS011;62991;50.040;18.400;2024-01-07T05:37:24;4.50;;;1.67;;
74510;SDS011;62991;50.040;18.400;2024-01-07T05:40:25;4.32;;;1.88;;
74510;SDS011;62991;50.040;18.400;2024-01-07T05:43:25;3.42;;;1.33;;
74510;SDS011;62991;50.040;18.400;2024-01-07T05:46:26;3.80;;;2.17;;
74510;SDS011;62991;50.040;18.400;2024-01-07T05:49:27;2.95;;;2.03;;
74510;SDS011;62991;50.040;18.400;2024-01-07T05:52:27;1.77;;;1.05;;
74510;SDS011;62991;50.040;18.400;2024-01-07T05:55:28;3.85;;;1.73;;
74510;SDS011;62991;50.040;18.400;2024-01-07T05:58:29;4.13;;;1.77;;
74510;SDS011;62991;50.040;18.400;2024-01-07T06:01:30;4.35;;;2.20;;
74510;SDS011;62991;50.040;18.400;2024-01-07T06:04:31;2.15;;;1.40;;
74510;SDS011;62991;50.040;18.400;2024-01-07T06:07:31;3.15;;;1.30;;
74510;SDS011;62991;50.040;18.400;2024-01-07T06:10:32;2.00;;;1.02;;
74510;SDS011;62991;50.040;18.400;2024-01-07T06:13:32;2.55;;;1.55;;
74510;SDS011;62991;50.040;18.400;2024-01-07T06:16:33;4.30;;;1.55;;
74510;SDS011;62991;50.040;18.400;2024-01-07T06:19:34;3.55;;;1.95;;
74510;SDS011;62991;50.040;18.400;2024-01-07T06:22:34;5.78;;;2.08;;
74510;SDS011;62991;50.040;18.400;2024-01-07T06:25:35;2.20;;;1.45;;
74510;SDS011;62991;50.040;18.400;2024-01-07T06:28:35;3.45;;;1.42;;
74510;SDS011;62991;50.040;18.400;2024-01-07T06:31:36;4.32;;;1.30;;
74510;SDS011;62991;50.040;18.400;2024-01-07T06:34:42;3.20;;;1.55;;
74510;SDS011;62991;50.040;18.400;2024-01-07T06:37:43;7.13;;;1.60;;
74510;SDS011;62991;50.040;18.400;2024-01-07T06:40:44;3.65;;;1.60;;
74510;SDS011;62991;50.040;18.400;2024-01-07T06:43:44;5.90;;;1.48;;
74510;SDS011;62991;50.040;18.400;2024-01-07T06:46:45;9.63;;;2.35;;
74510;SDS011;62991;50.040;18.400;2024-01-07T06:49:46;2.97;;;1.95;;
74510;SDS011;62991;50.040;18.400;2024-01-07T06:52:46;5.03;;;2.08;;
74510;SDS011;62991;50.040;18.400;2024-01-07T06:55:47;4.60;;;1.80;;
74510;SDS011;62991;50.040;18.400;2024-01-07T06:58:47;2.33;;;1.05;;
74510;SDS011;62991;50.040;18.400;2024-01-07T07:01:50;6.38;;;2.05;;
74510;SDS011;62991;50.040;18.400;2024-01-07T07:04:50;4.97;;;2.00;;
74510;SDS011;62991;50.040;18.400;2024-01-07T07:07:51;6.13;;;2.60;;
74510;SDS011;62991;50.040;18.400;2024-01-07T07:10:52;8.45;;;3.03;;
74510;SDS011;62991;50.040;18.400;2024-01-07T07:13:52;2.33;;;1.13;;
74510;SDS011;62991;50.040;18.400;2024-01-07T07:16:53;2.28;;;1.42;;
74510;SDS011;62991;50.040;18.400;2024-01-07T07:19:53;1.38;;;1.10;;
74510;SDS011;62991;50.040;18.400;2024-01-07T07:22:54;4.88;;;2.08;;
74510;SDS011;62991;50.040;18.400;2024-01-07T07:25:55;2.50;;;1.63;;
74510;SDS011;62991;50.040;18.400;2024-01-07T07:28:56;7.78;;;2.00;;
74510;SDS011;62991;50.040;18.400;2024-01-07T07:31:56;2.65;;;1.27;;
74510;SDS011;62991;50.040;18.400;2024-01-07T07:34:57;4.85;;;1.77;;
74510;SDS011;62991;50.040;18.400;2024-01-07T07:37:58;7.00;;;2.55;;
74510;SDS011;62991;50.040;18.400;2024-01-07T07:40:59;3.95;;;2.05;;
74510;SDS011;62991;50.040;18.400;2024-01-07T07:44:00;3.13;;;1.95;;
74510;SDS011;62991;50.040;18.400;2024-01-07T07:47:00;7.15;;;2.33;;
74510;SDS011;62991;50.040;18.400;2024-01-07T07:50:01;7.32;;;2.58;;
74510;SDS011;62991;50.040;18.400;2024-01-07T07:53:02;6.53;;;3.05;;
74510;SDS011;62991;50.040;18.400;2024-01-07T07:56:03;5.22;;;2.85;;
74510;SDS011;62991;50.040;18.400;2024-01-07T07:59:04;6.75;;;2.05;;
74510;SDS011;62991;50.040;18.400;2024-01-07T08:02:04;1.13;;;0.85;;
74510;SDS011;62991;50.040;18.400;2024-01-07T08:05:06;2.53;;;1.48;;
74510;SDS011;62991;50.040;18.400;2024-01-07T08:08:07;4.30;;;1.70;;
74510;SDS011;62991;50.040;18.400;2024-01-07T08:11:08;4.82;;;2.55;;
74510;SDS011;62991;50.040;18.400;2024-01-07T08:14:09;5.53;;;2.53;;
74510;SDS011;62991;50.040;18.400;2024-01-07T08:17:10;9.63;;;3.30;;
74510;SDS011;62991;50.040;18.400;2024-01-07T08:20:11;6.20;;;2.30;;
74510;SDS011;62991;50.040;18.400;2024-01-07T08:23:12;4.57;;;2.22;;
74510;SDS011;62991;50.040;18.400;2024-01-07T08:26:12;5.93;;;2.38;;
74510;SDS011;62991;50.040;18.400;2024-01-07T08:29:17;6.07;;;2.55;;
74510;SDS011;62991;50.040;18.400;2024-01-07T08:32:18;9.98;;;2.35;;
74510;SDS011;62991;50.040;18.400;2024-01-07T08:35:22;5.97;;;2.47;;
74510;SDS011;62991;50.040;18.400;2024-01-07T08:38:23;6.13;;;2.55;;
74510;SDS011;62991;50.040;18.400;2024-01-07T08:41:23;2.97;;;1.95;;
74510;SDS011;62991;50.040;18.400;2024-01-07T08:44:24;5.65;;;2.58;;
74510;SDS011;62991;50.040;18.400;2024-01-07T08:47:24;6.90;;;2.30;;
74510;SDS011;62991;50.040;18.400;2024-01-07T08:50:25;4.07;;;1.98;;
74510;SDS011;62991;50.040;18.400;2024-01-07T08:53:26;3.45;;;1.90;;
74510;SDS011;62991;50.040;18.400;2024-01-07T08:56:26;5.35;;;2.63;;
74510;SDS011;62991;50.040;18.400;2024-01-07T08:59:27;4.10;;;1.75;;
74510;SDS011;62991;50.040;18.400;2024-01-07T09:02:27;3.80;;;1.50;;
74510;SDS011;62991;50.040;18.400;2024-01-07T09:05:28;9.43;;;2.67;;
74510;SDS011;62991;50.040;18.400;2024-01-07T09:08:29;1.35;;;1.02;;
74510;SDS011;62991;50.040;18.400;2024-01-07T09:11:29;3.17;;;1.50;;
74510;SDS011;62991;50.040;18.400;2024-01-07T09:14:30;5.90;;;2.35;;
74510;SDS011;62991;50.040;18.400;2024-01-07T09:17:31;6.32;;;2.42;;
74510;SDS011;62991;50.040;18.400;2024-01-07T09:20:31;4.55;;;2.47;;
74510;SDS011;62991;50.040;18.400;2024-01-07T09:23:33;7.75;;;3.63;;
74510;SDS011;62991;50.040;18.400;2024-01-07T09:26:36;5.90;;;2.53;;
74510;SDS011;62991;50.040;18.400;2024-01-07T09:29:37;2.75;;;1.70;;
74510;SDS011;62991;50.040;18.400;2024-01-07T09:32:38;6.68;;;1.52;;
74510;SDS011;62991;50.040;18.400;2024-01-07T09:35:38;5.38;;;3.00;;
74510;SDS011;62991;50.040;18.400;2024-01-07T09:38:39;5.18;;;2.70;;
74510;SDS011;62991;50.040;18.400;2024-01-07T09:41:40;4.65;;;2.50;;
74510;SDS011;62991;50.040;18.400;2024-01-07T09:44:41;3.45;;;1.98;;
74510;SDS011;62991;50.040;18.400;2024-01-07T09:47:43;6.93;;;2.53;;
74510;SDS011;62991;50.040;18.400;2024-01-07T09:50:44;7.03;;;2.67;;
74510;SDS011;62991;50.040;18.400;2024-01-07T09:53:45;3.92;;;2.35;;
74510;SDS011;62991;50.040;18.400;2024-01-07T09:56:50;3.47;;;2.10;;
74510;SDS011;62991;50.040;18.400;2024-01-07T09:59:55;3.92;;;2.03;;
74510;SDS011;62991;50.040;18.400;2024-01-07T10:02:56;4.97;;;2.38;;
74510;SDS011;62991;50.040;18.400;2024-01-07T10:05:56;7.20;;;2.60;;
74510;SDS011;62991;50.040;18.400;2024-01-07T10:08:58;5.85;;;2.70;;
74510;SDS011;62991;50.040;18.400;2024-01-07T10:11:59;6.13;;;1.77;;
74510;SDS011;62991;50.040;18.400;2024-01-07T10:15:00;4.28;;;1.17;;
74510;SDS011;62991;50.040;18.400;2024-01-07T10:18:02;2.67;;;1.30;;
74510;SDS011;62991;50.040;18.400;2024-01-07T10:21:06;2.85;;;1.75;;
74510;SDS011;62991;50.040;18.400;2024-01-07T10:24:07;6.50;;;2.80;;
74510;SDS011;62991;50.040;18.400;2024-01-07T10:27:10;6.22;;;2.80;;
74510;SDS011;62991;50.040;18.400;2024-01-07T10:30:11;2.58;;;1.40;;
74510;SDS011;62991;50.040;18.400;2024-01-07T10:33:12;3.47;;;2.22;;
74510;SDS011;62991;50.040;18.400;2024-01-07T10:36:13;4.10;;;1.77;;
74510;SDS011;62991;50.040;18.400;2024-01-07T10:39:14;3.58;;;1.88;;
74510;SDS011;62991;50.040;18.400;2024-01-07T10:42:16;4.57;;;2.50;;
74510;SDS011;62991;50.040;18.400;2024-01-07T10:45:18;4.97;;;2.50;;
74510;SDS011;62991;50.040;18.400;2024-01-07T10:48:19;6.47;;;2.30;;
74510;SDS011;62991;50.040;18.400;2024-01-07T10:51:21;3.38;;;2.00;;
74510;SDS011;62991;50.040;18.400;2024-01-07T10:54:23;5.53;;;2.35;;
74510;SDS011;62991;50.040;18.400;2024-01-07T11:00:41;6.75;;;4.05;;
74510;SDS011;62991;50.040;18.400;2024-01-07T11:06:52;11.65;;;3.50;;
74510;SDS011;62991;50.040;18.400;2024-01-07T11:13:09;8.02;;;2.95;;
74510;SDS011;62991;50.040;18.400;2024-01-07T11:16:09;9.45;;;4.28;;
74510;SDS011;62991;50.040;18.400;2024-01-07T11:19:13;8.05;;;2.50;;
74510;SDS011;62991;50.040;18.400;2024-01-07T11:22:21;5.40;;;2.47;;
74510;SDS011;62991;50.040;18.400;2024-01-07T11:25:28;7.47;;;3.05;;
74510;SDS011;62991;50.040;18.400;2024-01-07T11:31:50;5.70;;;2.60;;
74510;SDS011;62991;50.040;18.400;2024-01-07T11:34:50;3.72;;;2.78;;
74510;SDS011;62991;50.040;18.400;2024-01-07T11:37:53;9.00;;;2.75;;
74510;SDS011;62991;50.040;18.400;2024-01-07T11:40:54;5.82;;;2.35;;
74510;SDS011;62991;50.040;18.400;2024-01-07T11:43:59;8.13;;;2.55;;
74510;SDS011;62991;50.040;18.400;2024-01-07T11:47:00;8.25;;;3.20;;
74510;SDS011;62991;50.040;18.400;2024-01-07T11:50:01;5.85;;;3.03;;
74510;SDS011;62991;50.040;18.400;2024-01-07T11:53:01;5.70;;;2.35;;
74510;SDS011;62991;50.040;18.400;2024-01-07T11:56:02;17.23;;;5.65;;
74510;SDS011;62991;50.040;18.400;2024-01-07T11:59:04;4.00;;;2.45;;
74510;SDS011;62991;50.040;18.400;2024-01-07T12:02:07;9.25;;;4.22;;
74510;SDS011;62991;50.040;18.400;2024-01-07T12:05:07;9.30;;;3.70;;
74510;SDS011;62991;50.040;18.400;2024-01-07T12:08:08;8.68;;;4.15;;
74510;SDS011;62991;50.040;18.400;2024-01-07T12:11:11;4.75;;;2.80;;
74510;SDS011;62991;50.040;18.400;2024-01-07T12:14:13;6.50;;;2.60;;
74510;SDS011;62991;50.040;18.400;2024-01-07T12:17:16;6.65;;;2.42;;
74510;SDS011;62991;50.040;18.400;2024-01-07T12:20:17;4.55;;;2.30;;
74510;SDS011;62991;50.040;18.400;2024-01-07T12:23:17;4.95;;;2.55;;
74510;SDS011;62991;50.040;18.400;2024-01-07T12:26:18;7.53;;;3.42;;
74510;SDS011;62991;50.040;18.400;2024-01-07T12:29:19;6.10;;;3.13;;
74510;SDS011;62991;50.040;18.400;2024-01-07T12:32:21;14.95;;;4.22;;
74510;SDS011;62991;50.040;18.400;2024-01-07T12:35:24;13.82;;;4.80;;
74510;SDS011;62991;50.040;18.400;2024-01-07T12:38:26;16.27;;;4.47;;
74510;SDS011;62991;50.040;18.400;2024-01-07T12:41:27;7.45;;;3.38;;
74510;SDS011;62991;50.040;18.400;2024-01-07T12:44:29;7.93;;;4.72;;
74510;SDS011;62991;50.040;18.400;2024-01-07T12:47:29;5.70;;;2.90;;
74510;SDS011;62991;50.040;18.400;2024-01-07T12:50:30;8.98;;;4.35;;
74510;SDS011;62991;50.040;18.400;2024-01-07T12:53:31;12.25;;;4.80;;
74510;SDS011;62991;50.040;18.400;2024-01-07T12:56:32;8.45;;;3.58;;
74510;SDS011;62991;50.040;18.400;2024-01-07T12:59:32;8.77;;;5.13;;
74510;SDS011;62991;50.040;18.400;2024-01-07T13:02:33;5.45;;;3.28;;
74510;SDS011;62991;50.040;18.400;2024-01-07T13:05:34;8.70;;;4.25;;
74510;SDS011;62991;50.040;18.400;2024-01-07T13:08:35;9.95;;;4.15;;
74510;SDS011;62991;50.040;18.400;2024-01-07T13:11:35;10.23;;;4.40;;
74510;SDS011;62991;50.040;18.400;2024-01-07T13:14:36;9.00;;;3.40;;
74510;SDS011;62991;50.040;18.400;2024-01-07T13:17:37;6.50;;;3.83;;
74510;SDS011;62991;50.040;18.400;2024-01-07T13:20:37;7.80;;;4.25;;
74510;SDS011;62991;50.040;18.400;2024-01-07T13:23:39;7.65;;;3.55;;
74510;SDS011;62991;50.040;18.400;2024-01-07T13:26:43;10.02;;;3.63;;
74510;SDS011;62991;50.040;18.400;2024-01-07T13:29:44;5.53;;;3.47;;
74510;SDS011;62991;50.040;18.400;2024-01-07T13:32:47;10.52;;;4.32;;
74510;SDS011;62991;50.040;18.400;2024-01-07T13:35:49;7.00;;;3.33;;
74510;SDS011;62991;50.040;18.400;2024-01-07T13:38:50;10.10;;;3.78;;
74510;SDS011;62991;50.040;18.400;2024-01-07T13:41:51;9.57;;;4.18;;
74510;SDS011;62991;50.040;18.400;2024-01-07T13:44:53;16.05;;;4.65;;
74510;SDS011;62991;50.040;18.400;2024-01-07T13:47:54;7.32;;;3.75;;
74510;SDS011;62991;50.040;18.400;2024-01-07T13:50:55;6.88;;;3.45;;
74510;SDS011;62991;50.040;18.400;2024-01-07T13:53:58;8.77;;;3.85;;
74510;SDS011;62991;50.040;18.400;2024-01-07T13:56:58;8.38;;;4.22;;
74510;SDS011;62991;50.040;18.400;2024-01-07T13:59:59;8.07;;;4.40;;
74510;SDS011;62991;50.040;18.400;2024-01-07T14:03:00;11.18;;;3.30;;
74510;SDS011;62991;50.040;18.400;2024-01-07T14:06:01;10.23;;;4.03;;
74510;SDS011;62991;50.040;18.400;2024-01-07T14:09:03;12.15;;;5.05;;
74510;SDS011;62991;50.040;18.400;2024-01-07T14:12:04;8.07;;;3.80;;
74510;SDS011;62991;50.040;18.400;2024-01-07T14:15:04;14.45;;;5.30;;
74510;SDS011;62991;50.040;18.400;2024-01-07T14:18:06;7.95;;;3.75;;
74510;SDS011;62991;50.040;18.400;2024-01-07T14:21:07;9.98;;;4.18;;
74510;SDS011;62991;50.040;18.400;2024-01-07T14:24:09;14.70;;;4.55;;
74510;SDS011;62991;50.040;18.400;2024-01-07T14:27:10;17.17;;;4.65;;
74510;SDS011;62991;50.040;18.400;2024-01-07T14:30:11;10.55;;;4.38;;
74510;SDS011;62991;50.040;18.400;2024-01-07T14:33:13;7.60;;;3.55;;
74510;SDS011;62991;50.040;18.400;2024-01-07T14:36:13;9.57;;;4.03;;
74510;SDS011;62991;50.040;18.400;2024-01-07T14:39:17;4.55;;;2.90;;
74510;SDS011;62991;50.040;18.400;2024-01-07T14:42:19;10.82;;;4.28;;
74510;SDS011;62991;50.040;18.400;2024-01-07T14:45:19;7.95;;;3.42;;
74510;SDS011;62991;50.040;18.400;2024-01-07T14:48:20;9.60;;;4.68;;
74510;SDS011;62991;50.040;18.400;2024-01-07T14:51:21;7.93;;;2.35;;
74510;SDS011;62991;50.040;18.400;2024-01-07T14:54:22;5.20;;;2.75;;
74510;SDS011;62991;50.040;18.400;2024-01-07T14:57:23;6.72;;;3.20;;
74510;SDS011;62991;50.040;18.400;2024-01-07T15:00:24;14.60;;;4.65;;
74510;SDS011;62991;50.040;18.400;2024-01-07T15:03:24;7.15;;;3.10;;
74510;SDS011;62991;50.040;18.400;2024-01-07T15:06:25;9.32;;;3.60;;
74510;SDS011;62991;50.040;18.400;2024-01-07T15:09:26;9.95;;;4.03;;
74510;SDS011;62991;50.040;18.400;2024-01-07T15:12:27;5.40;;;3.25;;
74510;SDS011;62991;50.040;18.400;2024-01-07T15:15:36;7.15;;;3.90;;
74510;SDS011;62991;50.040;18.400;2024-01-07T15:18:37;7.00;;;3.78;;
74510;SDS011;62991;50.040;18.400;2024-01-07T15:21:38;8.45;;;3.42;;
74510;SDS011;62991;50.040;18.400;2024-01-07T15:24:38;6.00;;;4.00;;
74510;SDS011;62991;50.040;18.400;2024-01-07T15:27:39;7.10;;;2.92;;
74510;SDS011;62991;50.040;18.400;2024-01-07T15:30:39;13.88;;;4.28;;
74510;SDS011;62991;50.040;18.400;2024-01-07T15:33:40;8.65;;;3.50;;
74510;SDS011;62991;50.040;18.400;2024-01-07T15:36:41;10.10;;;3.30;;
74510;SDS011;62991;50.040;18.400;2024-01-07T15:39:41;8.70;;;4.57;;
74510;SDS011;62991;50.040;18.400;2024-01-07T15:42:43;8.85;;;3.60;;
74510;SDS011;62991;50.040;18.400;2024-01-07T15:45:44;7.60;;;3.10;;
74510;SDS011;62991;50.040;18.400;2024-01-07T15:48:45;13.15;;;5.15;;
74510;SDS011;62991;50.040;18.400;2024-01-07T15:51:45;9.10;;;3.45;;
74510;SDS011;62991;50.040;18.400;2024-01-07T15:54:46;7.03;;;3.17;;
74510;SDS011;62991;50.040;18.400;2024-01-07T15:57:46;11.30;;;4.28;;
74510;SDS011;62991;50.040;18.400;2024-01-07T16:00:48;7.97;;;4.60;;
74510;SDS011;62991;50.040;18.400;2024-01-07T16:03:48;6.93;;;3.35;;
74510;SDS011;62991;50.040;18.400;2024-01-07T16:06:49;11.70;;;4.10;;
74510;SDS011;62991;50.040;18.400;2024-01-07T16:09:50;10.35;;;5.07;;
74510;SDS011;62991;50.040;18.400;2024-01-07T16:12:50;10.80;;;4.22;;
74510;SDS011;62991;50.040;18.400;2024-01-07T16:15:51;14.07;;;5.40;;
74510;SDS011;62991;50.040;18.400;2024-01-07T16:18:52;21.60;;;6.53;;
74510;SDS011;62991;50.040;18.400;2024-01-07T16:21:52;8.43;;;4.28;;
74510;SDS011;62991;50.040;18.400;2024-01-07T16:24:53;11.18;;;4.10;;
74510;SDS011;62991;50.040;18.400;2024-01-07T16:27:54;8.50;;;4.40;;
74510;SDS011;62991;50.040;18.400;2024-01-07T16:30:55;8.63;;;3.90;;
74510;SDS011;62991;50.040;18.400;2024-01-07T16:33:55;13.73;;;4.40;;
74510;SDS011;62991;50.040;18.400;2024-01-07T16:36:56;14.55;;;5.22;;
74510;SDS011;62991;50.040;18.400;2024-01-07T16:39:57;11.50;;;5.45;;
74510;SDS011;62991;50.040;18.400;2024-01-07T16:42:57;12.82;;;6.13;;
74510;SDS011;62991;50.040;18.400;2024-01-07T16:45:59;13.55;;;5.18;;
74510;SDS011;62991;50.040;18.400;2024-01-07T16:49:00;10.07;;;4.25;;
74510;SDS011;62991;50.040;18.400;2024-01-07T16:52:01;12.20;;;4.15;;
74510;SDS011;62991;50.040;18.400;2024-01-07T16:55:01;14.75;;;6.93;;
74510;SDS011;62991;50.040;18.400;2024-01-07T16:58:02;11.70;;;5.05;;
74510;SDS011;62991;50.040;18.400;2024-01-07T17:01:03;18.58;;;7.13;;
74510;SDS011;62991;50.040;18.400;2024-01-07T17:04:03;11.25;;;4.68;;
74510;SDS011;62991;50.040;18.400;2024-01-07T17:07:04;8.52;;;4.57;;
74510;SDS011;62991;50.040;18.400;2024-01-07T17:10:05;13.50;;;4.85;;
74510;SDS011;62991;50.040;18.400;2024-01-07T17:13:08;5.68;;;3.65;;
74510;SDS011;62991;50.040;18.400;2024-01-07T17:16:08;14.27;;;4.85;;
74510;SDS011;62991;50.040;18.400;2024-01-07T17:19:09;10.45;;;5.03;;
74510;SDS011;62991;50.040;18.400;2024-01-07T17:22:10;9.98;;;4.43;;
74510;SDS011;62991;50.040;18.400;2024-01-07T17:25:10;10.07;;;5.20;;
74510;SDS011;62991;50.040;18.400;2024-01-07T17:28:11;15.95;;;6.95;;
74510;SDS011;62991;50.040;18.400;2024-01-07T17:31:12;14.13;;;5.50;;
74510;SDS011;62991;50.040;18.400;2024-01-07T17:34:13;9.73;;;4.35;;
74510;SDS011;62991;50.040;18.400;2024-01-07T17:37:14;7.25;;;4.22;;
74510;SDS011;62991;50.040;18.400;2024-01-07T17:40:14;10.13;;;5.90;;
74510;SDS011;62991;50.040;18.400;2024-01-07T17:43:15;15.35;;;5.82;;
74510;SDS011;62991;50.040;18.400;2024-01-07T17:46:17;9.30;;;3.78;;
74510;SDS011;62991;50.040;18.400;2024-01-07T17:49:17;5.93;;;1.92;;
74510;SDS011;62991;50.040;18.400;2024-01-07T17:52:19;11.80;;;3.65;;
74510;SDS011;62991;50.040;18.400;2024-01-07T17:55:20;10.35;;;3.50;;
74510;SDS011;62991;50.040;18.400;2024-01-07T17:58:21;9.50;;;3.72;;
74510;SDS011;62991;50.040;18.400;2024-01-07T18:01:21;7.20;;;3.75;;
74510;SDS011;62991;50.040;18.400;2024-01-07T18:04:22;12.13;;;4.97;;
74510;SDS011;62991;50.040;18.400;2024-01-07T18:07:26;13.05;;;6.07;;